createdAt,value
2018-07-22T00:00:30.371Z,1004.4
2018-07-22T00:01:32.656Z,1004.4
2018-07-22T00:02:34.678Z,1004.5
2018-07-22T00:03:36.673Z,1004.4
2018-07-22T00:04:39.055Z,1004.4
2018-07-22T00:05:41.061Z,1004.4
2018-07-22T00:06:43.340Z,1004.4
2018-07-22T00:07:45.339Z,1004.4
2018-07-22T00:08:47.343Z,1004.4
2018-07-22T00:09:49.337Z,1004.4
2018-07-22T00:10:51.343Z,1004.5
2018-07-22T00:11:53.347Z,1004.4
2018-07-22T00:12:55.357Z,1004.4
2018-07-22T00:13:57.408Z,1004.4
2018-07-22T00:14:59.364Z,1004.4
2018-07-22T00:16:01.646Z,1004.4
2018-07-22T00:17:03.641Z,1004.4
2018-07-22T00:18:06.235Z,1004.4
2018-07-22T00:19:08.227Z,1004.4
2018-07-22T00:20:10.225Z,1004.4
2018-07-22T00:21:12.613Z,1004.4
2018-07-22T00:22:14.915Z,1004.4
2018-07-22T00:23:16.915Z,1004.4
2018-07-22T00:24:18.930Z,1004.4
2018-07-22T00:25:20.941Z,1004.4
2018-07-22T00:26:23.316Z,1004.4
2018-07-22T00:27:25.327Z,1004.4
2018-07-22T00:28:27.329Z,1004.4
2018-07-22T00:29:29.326Z,1004.4
2018-07-22T00:30:31.318Z,1004.4
2018-07-22T00:31:33.323Z,1004.4
2018-07-22T00:32:35.321Z,1004.4
2018-07-22T00:33:37.326Z,1004.4
2018-07-22T00:34:39.329Z,1004.3
2018-07-22T00:35:41.323Z,1004.4
2018-07-22T00:36:43.320Z,1004.4
2018-07-22T00:37:45.327Z,1004.4
2018-07-22T00:38:47.327Z,1004.3
2018-07-22T00:39:49.334Z,1004.4
2018-07-22T00:40:51.727Z,1004.3
2018-07-22T00:41:53.723Z,1004.3
2018-07-22T00:42:55.733Z,1004.3
2018-07-22T00:43:58.110Z,1004.3
2018-07-22T00:45:00.112Z,1004.3
2018-07-22T00:46:02.388Z,1004.3
2018-07-22T00:47:05.055Z,1004.3
2018-07-22T00:48:07.343Z,1004.3
2018-07-22T00:49:09.343Z,1004.3
2018-07-22T00:50:11.344Z,1004.3
2018-07-22T00:51:13.923Z,1004.3
2018-07-22T00:52:16.297Z,1004.3
2018-07-22T00:53:18.303Z,1004.3
2018-07-22T00:54:20.298Z,1004.3
2018-07-22T00:55:22.308Z,1004.3
2018-07-22T00:56:24.894Z,1004.3
2018-07-22T00:57:27.175Z,1004.3
2018-07-22T00:58:29.186Z,1004.3
2018-07-22T00:59:31.562Z,1004.2
2018-07-22T01:00:33.573Z,1004.2
2018-07-22T01:01:35.581Z,1004.2
2018-07-22T01:02:37.575Z,1004.3
2018-07-22T01:03:39.580Z,1004.3
2018-07-22T01:04:41.585Z,1004.3
2018-07-22T01:05:43.580Z,1004.3
2018-07-22T01:06:45.594Z,1004.2
2018-07-22T01:07:47.878Z,1004.2
2018-07-22T01:08:49.868Z,1004.2
2018-07-22T01:09:52.151Z,1004.2
2018-07-22T01:10:54.161Z,1004.3
2018-07-22T01:11:56.159Z,1004.3
2018-07-22T01:12:58.754Z,1004.3
2018-07-22T01:14:00.762Z,1004.3
2018-07-22T01:15:02.763Z,1004.3
2018-07-22T01:16:04.771Z,1004.2
2018-07-22T01:17:06.768Z,1004.3
2018-07-22T01:18:08.773Z,1004.3
2018-07-22T01:19:10.767Z,1004.3
2018-07-22T01:20:12.779Z,1004.3
2018-07-22T01:21:15.057Z,1004.3
2018-07-22T01:22:17.053Z,1004.3
2018-07-22T01:23:19.442Z,1004.3
2018-07-22T01:24:21.733Z,1004.2
2018-07-22T01:25:23.723Z,1004.3
2018-07-22T01:26:25.726Z,1004.3
2018-07-22T01:27:27.720Z,1004.3
2018-07-22T01:28:29.727Z,1004.3
2018-07-22T01:29:31.724Z,1004.3
2018-07-22T01:30:34.015Z,1004.3
2018-07-22T01:31:36.024Z,1004.3
2018-07-22T01:32:38.786Z,1004.3
2018-07-22T01:33:40.794Z,1004.3
2018-07-22T01:34:42.796Z,1004.3
2018-07-22T01:35:44.793Z,1004.3
2018-07-22T01:36:47.177Z,1004.2
2018-07-22T01:37:49.187Z,1004.3
2018-07-22T01:38:51.464Z,1004.2
2018-07-22T01:39:53.467Z,1004.3
2018-07-22T01:40:55.464Z,1004.3
2018-07-22T01:41:57.459Z,1004.3
2018-07-22T01:42:59.461Z,1004.2
2018-07-22T01:44:01.472Z,1004.3
2018-07-22T01:45:03.467Z,1004.3
2018-07-22T01:46:05.472Z,1004.3
2018-07-22T01:47:07.481Z,1004.3
2018-07-22T01:48:10.139Z,1004.3
2018-07-22T01:49:12.148Z,1004.3
2018-07-22T01:50:14.146Z,1004.2
2018-07-22T01:51:16.143Z,1004.2
2018-07-22T01:52:18.138Z,1004.2
2018-07-22T01:53:20.142Z,1004.2
2018-07-22T01:54:22.144Z,1004.2
2018-07-22T01:55:24.135Z,1004.2
2018-07-22T01:56:26.142Z,1004.2
2018-07-22T01:57:28.135Z,1004.2
2018-07-22T01:58:30.146Z,1004.2
2018-07-22T01:59:32.147Z,1004.2
2018-07-22T02:00:34.153Z,1004.2
2018-07-22T02:01:36.166Z,1004.2
2018-07-22T02:02:38.158Z,1004.2
2018-07-22T02:03:40.443Z,1004.2
2018-07-22T02:04:42.449Z,1004.2
2018-07-22T02:05:44.440Z,1004.2
2018-07-22T02:06:46.732Z,1004.2
2018-07-22T02:07:48.727Z,1004.2
2018-07-22T02:08:50.729Z,1004.2
2018-07-22T02:09:53.018Z,1004.2
2018-07-22T02:10:55.300Z,1004.2
2018-07-22T02:11:57.296Z,1004.2
2018-07-22T02:12:59.303Z,1004.2
2018-07-22T02:14:01.303Z,1004.2
2018-07-22T02:15:03.293Z,1004.2
2018-07-22T02:16:05.680Z,1004.2
2018-07-22T02:17:07.686Z,1004.2
2018-07-22T02:18:10.014Z,1004.1
2018-07-22T02:19:11.969Z,1004.2
2018-07-22T02:20:13.981Z,1004.1
2018-07-22T02:21:15.973Z,1004.1
2018-07-22T02:22:18.365Z,1004.1
2018-07-22T02:23:20.662Z,1004.2
2018-07-22T02:24:22.666Z,1004.1
2018-07-22T02:25:24.660Z,1004.1
2018-07-22T02:26:26.661Z,1004.2
2018-07-22T02:27:28.653Z,1004.1
2018-07-22T02:28:30.936Z,1004.2
2018-07-22T02:29:32.939Z,1004.1
2018-07-22T02:30:34.929Z,1004.1
2018-07-22T02:31:36.940Z,1004.1
2018-07-22T02:32:39.223Z,1004.1
2018-07-22T02:33:41.616Z,1004
2018-07-22T02:34:43.894Z,1004.1
2018-07-22T02:35:46.196Z,1004
2018-07-22T02:36:48.192Z,1004.1
2018-07-22T02:37:50.474Z,1004.1
2018-07-22T02:38:52.773Z,1004.1
2018-07-22T02:39:55.331Z,1004.1
2018-07-22T02:40:57.614Z,1004.1
2018-07-22T02:42:00.009Z,1004.1
2018-07-22T02:43:02.589Z,1004.1
2018-07-22T02:44:05.148Z,1004.1
2018-07-22T02:45:07.450Z,1004.1
2018-07-22T02:46:09.447Z,1004.1
2018-07-22T02:47:11.448Z,1004
2018-07-22T02:48:13.846Z,1004
2018-07-22T02:49:16.700Z,1004.1
2018-07-22T02:50:19.257Z,1004.1
2018-07-22T02:51:21.314Z,1004.1
2018-07-22T02:52:23.536Z,1004
2018-07-22T02:53:25.531Z,1004
2018-07-22T02:54:27.827Z,1004
2018-07-22T02:55:30.094Z,1004
2018-07-22T02:56:32.100Z,1004
2018-07-22T02:57:34.098Z,1004
2018-07-22T02:58:36.393Z,1004.1
2018-07-22T02:59:38.668Z,1004
2018-07-22T03:00:41.055Z,1004
2018-07-22T03:01:43.062Z,1004
2018-07-22T03:02:45.059Z,1004
2018-07-22T03:03:47.354Z,1004
2018-07-22T03:04:49.628Z,1004
2018-07-22T03:05:52.015Z,1004
2018-07-22T03:06:54.011Z,1004
2018-07-22T03:07:56.968Z,1004
2018-07-22T03:08:59.244Z,1004
2018-07-22T03:10:01.550Z,1004
2018-07-22T03:11:03.830Z,1004
2018-07-22T03:12:05.823Z,1004
2018-07-22T03:13:08.505Z,1004
2018-07-22T03:14:10.507Z,1004
2018-07-22T03:15:12.789Z,1004.1
2018-07-22T03:16:15.090Z,1004.1
2018-07-22T03:17:17.377Z,1004
2018-07-22T03:18:19.659Z,1004
2018-07-22T03:19:21.933Z,1004.1
2018-07-22T03:20:23.934Z,1004
2018-07-22T03:21:26.224Z,1004
2018-07-22T03:22:28.503Z,1004
2018-07-22T03:23:30.789Z,1004.1
2018-07-22T03:24:33.745Z,1004.1
2018-07-22T03:25:35.744Z,1004
2018-07-22T03:26:38.020Z,1004.1
2018-07-22T03:27:40.026Z,1004.1
2018-07-22T03:28:42.403Z,1004.1
2018-07-22T03:29:44.408Z,1004.1
2018-07-22T03:30:46.984Z,1004.1
2018-07-22T03:31:49.660Z,1004.1
2018-07-22T03:32:51.655Z,1004.2
2018-07-22T03:33:53.663Z,1004.1
2018-07-22T03:34:56.047Z,1004.1
2018-07-22T03:35:58.042Z,1004.1
2018-07-22T03:37:00.053Z,1004.1
2018-07-22T03:38:02.047Z,1004.1
2018-07-22T03:39:04.047Z,1004.1
2018-07-22T03:40:06.045Z,1004.1
2018-07-22T03:41:08.051Z,1004.1
2018-07-22T03:42:10.329Z,1004.1
2018-07-22T03:43:12.336Z,1004.1
2018-07-22T03:44:14.344Z,1004.1
2018-07-22T03:45:16.333Z,1004.1
2018-07-22T03:46:18.733Z,1004.1
2018-07-22T03:47:20.746Z,1004.1
2018-07-22T03:48:22.728Z,1004.1
2018-07-22T03:49:24.729Z,1004.1
2018-07-22T03:50:26.743Z,1004.1
2018-07-22T03:51:28.734Z,1004.1
2018-07-22T03:52:30.740Z,1004.1
2018-07-22T03:53:32.751Z,1004
2018-07-22T03:54:34.740Z,1004.1
2018-07-22T03:55:36.740Z,1004
2018-07-22T03:56:38.738Z,1004.1
2018-07-22T03:57:40.746Z,1004.1
2018-07-22T03:58:43.023Z,1004
2018-07-22T03:59:45.015Z,1004
2018-07-22T04:00:47.022Z,1004.1
2018-07-22T04:01:49.011Z,1004
2018-07-22T04:02:51.016Z,1004.1
2018-07-22T04:03:53.301Z,1004
2018-07-22T04:04:55.690Z,1004
2018-07-22T04:05:57.686Z,1004.1
2018-07-22T04:06:59.801Z,1004.1
2018-07-22T04:08:01.690Z,1004.1
2018-07-22T04:09:03.684Z,1004.1
2018-07-22T04:10:05.700Z,1004.1
2018-07-22T04:11:07.969Z,1004.1
2018-07-22T04:12:09.973Z,1004.1
2018-07-22T04:13:11.968Z,1004.1
2018-07-22T04:14:13.974Z,1004.1
2018-07-22T04:15:15.971Z,1004.1
2018-07-22T04:16:17.975Z,1004.1
2018-07-22T04:17:19.983Z,1004.1
2018-07-22T04:18:22.739Z,1004
2018-07-22T04:19:24.751Z,1004
2018-07-22T04:20:26.755Z,1004
2018-07-22T04:21:28.780Z,1004
2018-07-22T04:22:30.752Z,1004
2018-07-22T04:23:32.757Z,1004
2018-07-22T04:24:34.750Z,1004
2018-07-22T04:25:36.761Z,1004
2018-07-22T04:26:38.761Z,1004
2018-07-22T04:27:40.752Z,1004.1
2018-07-22T04:28:43.045Z,1004
2018-07-22T04:29:45.440Z,1004
2018-07-22T04:30:47.432Z,1004
2018-07-22T04:31:49.437Z,1004
2018-07-22T04:32:51.443Z,1004
2018-07-22T04:33:53.448Z,1004
2018-07-22T04:34:55.437Z,1004
2018-07-22T04:35:57.443Z,1004
2018-07-22T04:36:59.448Z,1004
2018-07-22T04:38:01.733Z,1004.1
2018-07-22T04:39:03.726Z,1004
2018-07-22T04:40:05.734Z,1004.1
2018-07-22T04:41:07.735Z,1004.1
2018-07-22T04:42:09.730Z,1004.1
2018-07-22T04:43:11.742Z,1004.1
2018-07-22T04:44:13.725Z,1004.1
2018-07-22T04:45:15.732Z,1004.1
2018-07-22T04:46:17.719Z,1004.1
2018-07-22T04:47:19.724Z,1004
2018-07-22T04:48:21.718Z,1004.1
2018-07-22T04:49:23.725Z,1004.1
2018-07-22T04:50:25.733Z,1004.1
2018-07-22T04:51:27.721Z,1004.1
2018-07-22T04:52:29.733Z,1004.1
2018-07-22T04:53:31.744Z,1004.1
2018-07-22T04:54:34.447Z,1004
2018-07-22T04:55:36.447Z,1004
2018-07-22T04:56:38.736Z,1004
2018-07-22T04:57:40.733Z,1004
2018-07-22T04:58:42.737Z,1004
2018-07-22T04:59:44.737Z,1004
2018-07-22T05:00:47.027Z,1004
2018-07-22T05:01:49.025Z,1004
2018-07-22T05:02:52.362Z,1004
2018-07-22T05:03:54.366Z,1004
2018-07-22T05:04:56.368Z,1004
2018-07-22T05:05:58.374Z,1004.1
2018-07-22T05:07:00.371Z,1004.1
2018-07-22T05:08:02.384Z,1004.1
2018-07-22T05:09:04.384Z,1004.1
2018-07-22T05:10:06.666Z,1004.1
2018-07-22T05:11:08.659Z,1004.1
2018-07-22T05:12:11.048Z,1004
2018-07-22T05:13:13.324Z,1004.1
2018-07-22T05:14:15.325Z,1004.1
2018-07-22T05:15:17.334Z,1004.1
2018-07-22T05:16:19.877Z,1004.2
2018-07-22T05:17:22.274Z,1004.1
2018-07-22T05:18:24.554Z,1004.1
2018-07-22T05:19:26.567Z,1004.1
2018-07-22T05:20:28.841Z,1004
2018-07-22T05:21:31.121Z,1004
2018-07-22T05:22:33.118Z,1004
2018-07-22T05:23:35.117Z,1004.1
2018-07-22T05:24:37.410Z,1004.1
2018-07-22T05:25:39.402Z,1004.1
2018-07-22T05:26:41.682Z,1004
2018-07-22T05:27:43.690Z,1004
2018-07-22T05:28:45.689Z,1004
2018-07-22T05:29:47.989Z,1004.1
2018-07-22T05:30:49.994Z,1004
2018-07-22T05:31:52.270Z,1004
2018-07-22T05:32:54.272Z,1004
2018-07-22T05:33:56.280Z,1004
2018-07-22T05:34:58.278Z,1004.1
2018-07-22T05:36:00.289Z,1004.1
2018-07-22T05:37:02.618Z,1004
2018-07-22T05:38:04.612Z,1004
2018-07-22T05:39:06.609Z,1004
2018-07-22T05:40:08.613Z,1004
2018-07-22T05:41:10.605Z,1004
2018-07-22T05:42:12.624Z,1004.1
2018-07-22T05:43:14.611Z,1004
2018-07-22T05:44:16.619Z,1004
2018-07-22T05:45:18.618Z,1004
2018-07-22T05:46:21.008Z,1004
2018-07-22T05:47:23.008Z,1004
2018-07-22T05:48:25.286Z,1004
2018-07-22T05:49:27.286Z,1004
2018-07-22T05:50:29.299Z,1004.1
2018-07-22T05:51:31.301Z,1004.1
2018-07-22T05:52:33.586Z,1004.1
2018-07-22T05:53:35.588Z,1004.1
2018-07-22T05:54:37.980Z,1004.1
2018-07-22T05:55:39.977Z,1004.1
2018-07-22T05:56:41.970Z,1004.1
2018-07-22T05:57:43.981Z,1004.1
2018-07-22T05:58:45.975Z,1004
2018-07-22T05:59:47.969Z,1004.1
2018-07-22T06:00:49.973Z,1004.1
2018-07-22T06:01:51.975Z,1004.1
2018-07-22T06:02:53.969Z,1004
2018-07-22T06:03:56.362Z,1004
2018-07-22T06:04:58.359Z,1004
2018-07-22T06:06:00.664Z,1004
2018-07-22T06:07:03.061Z,1004
2018-07-22T06:08:05.060Z,1004
2018-07-22T06:09:07.055Z,1004
2018-07-22T06:10:09.062Z,1004
2018-07-22T06:11:11.338Z,1004
2018-07-22T06:12:13.407Z,1004
2018-07-22T06:13:15.763Z,1004
2018-07-22T06:14:17.755Z,1004
2018-07-22T06:15:19.764Z,1004
2018-07-22T06:16:21.766Z,1004
2018-07-22T06:17:23.777Z,1004
2018-07-22T06:18:25.773Z,1004
2018-07-22T06:19:27.778Z,1004.1
2018-07-22T06:20:29.784Z,1004.1
2018-07-22T06:21:31.780Z,1004
2018-07-22T06:22:33.793Z,1004.1
2018-07-22T06:23:35.786Z,1004.1
2018-07-22T06:24:37.789Z,1004.1
2018-07-22T06:25:39.787Z,1004.1
2018-07-22T06:26:41.800Z,1004.2
2018-07-22T06:27:43.795Z,1004.2
2018-07-22T06:28:46.739Z,1004.2
2018-07-22T06:29:49.015Z,1004.2
2018-07-22T06:30:51.030Z,1004.1
2018-07-22T06:31:53.022Z,1004.2
2018-07-22T06:32:55.410Z,1004.2
2018-07-22T06:33:57.426Z,1004.2
2018-07-22T06:34:59.422Z,1004.3
2018-07-22T06:36:01.421Z,1004.2
2018-07-22T06:37:03.430Z,1004.2
2018-07-22T06:38:05.429Z,1004.2
2018-07-22T06:39:08.017Z,1004.2
2018-07-22T06:40:10.028Z,1004.1
2018-07-22T06:41:12.465Z,1004.2
2018-07-22T06:42:14.404Z,1004.1
2018-07-22T06:43:16.412Z,1004.2
2018-07-22T06:44:18.799Z,1004.1
2018-07-22T06:45:20.799Z,1004.1
2018-07-22T06:46:23.190Z,1004.1
2018-07-22T06:47:25.185Z,1004.1
2018-07-22T06:48:27.191Z,1004.1
2018-07-22T06:49:29.195Z,1004.1
2018-07-22T06:50:31.204Z,1004
2018-07-22T06:51:33.201Z,1004.1
2018-07-22T06:52:35.211Z,1004.1
2018-07-22T06:53:37.277Z,1004.1
2018-07-22T06:54:39.212Z,1004.1
2018-07-22T06:55:41.223Z,1004.1
2018-07-22T06:56:43.798Z,1004.1
2018-07-22T06:57:45.802Z,1004.1
2018-07-22T06:58:47.797Z,1004.1
2018-07-22T06:59:49.806Z,1004.1
2018-07-22T07:00:51.864Z,1004.1
2018-07-22T07:01:53.815Z,1004.1
2018-07-22T07:02:56.111Z,1004.1
2018-07-22T07:03:58.098Z,1004.1
2018-07-22T07:05:00.472Z,1004.2
2018-07-22T07:06:02.429Z,1004.1
2018-07-22T07:07:04.435Z,1004.1
2018-07-22T07:08:06.438Z,1004
2018-07-22T07:09:08.433Z,1004
2018-07-22T07:10:10.438Z,1004.1
2018-07-22T07:11:12.439Z,1004.1
2018-07-22T07:12:14.443Z,1004.1
2018-07-22T07:13:16.455Z,1004
2018-07-22T07:14:18.456Z,1004.1
2018-07-22T07:15:20.451Z,1004
2018-07-22T07:16:22.463Z,1004.1
2018-07-22T07:17:24.842Z,1004.1
2018-07-22T07:18:27.224Z,1004.1
2018-07-22T07:19:29.233Z,1004.1
2018-07-22T07:20:31.229Z,1004.1
2018-07-22T07:21:33.521Z,1004.1
2018-07-22T07:22:35.532Z,1004.1
2018-07-22T07:23:37.820Z,1004.1
2018-07-22T07:24:39.823Z,1004.1
2018-07-22T07:25:41.832Z,1004.1
2018-07-22T07:26:43.866Z,1004.1
2018-07-22T07:27:45.836Z,1004.1
2018-07-22T07:28:47.857Z,1004.2
2018-07-22T07:29:50.130Z,1004.1
2018-07-22T07:30:52.518Z,1004.2
2018-07-22T07:31:54.514Z,1004.1
2018-07-22T07:32:56.524Z,1004.2
2018-07-22T07:33:58.524Z,1004.2
2018-07-22T07:35:00.534Z,1004.1
2018-07-22T07:36:02.545Z,1004.2
2018-07-22T07:37:04.537Z,1004.2
2018-07-22T07:38:07.218Z,1004.2
2018-07-22T07:39:09.612Z,1004.1
2018-07-22T07:40:11.609Z,1004.1
2018-07-22T07:41:14.004Z,1004
2018-07-22T07:42:16.018Z,1004.1
2018-07-22T07:43:18.010Z,1004.1
2018-07-22T07:44:20.022Z,1004.1
2018-07-22T07:45:22.027Z,1004.1
2018-07-22T07:46:24.024Z,1004.1
2018-07-22T07:47:26.037Z,1004.1
2018-07-22T07:48:28.638Z,1004.1
2018-07-22T07:49:30.637Z,1004.2
2018-07-22T07:50:32.650Z,1004.1
2018-07-22T07:51:34.663Z,1004.1
2018-07-22T07:52:36.666Z,1004.1
2018-07-22T07:53:38.683Z,1004.1
2018-07-22T07:54:40.682Z,1004.1
2018-07-22T07:55:43.074Z,1004.1
2018-07-22T07:56:45.073Z,1004.1
2018-07-22T07:57:47.366Z,1004.1
2018-07-22T07:58:49.367Z,1004.2
2018-07-22T07:59:51.651Z,1004.1
2018-07-22T08:00:53.660Z,1004.1
2018-07-22T08:01:55.657Z,1004.1
2018-07-22T08:02:57.678Z,1004.1
2018-07-22T08:03:59.687Z,1004.1
2018-07-22T08:05:01.978Z,1004.1
2018-07-22T08:06:03.979Z,1004.1
2018-07-22T08:07:05.988Z,1004.1
2018-07-22T08:08:07.990Z,1004.1
2018-07-22T08:09:10.374Z,1004.1
2018-07-22T08:10:12.390Z,1004.2
2018-07-22T08:11:14.667Z,1004.2
2018-07-22T08:12:16.674Z,1004.1
2018-07-22T08:13:18.984Z,1004.1
2018-07-22T08:14:20.990Z,1004.2
2018-07-22T08:15:22.990Z,1004.2
2018-07-22T08:16:25.005Z,1004.2
2018-07-22T08:17:27.006Z,1004.1
2018-07-22T08:18:29.312Z,1004.1
2018-07-22T08:19:31.699Z,1004.1
2018-07-22T08:20:34.092Z,1004.1
2018-07-22T08:21:36.187Z,1004.1
2018-07-22T08:22:38.112Z,1004
2018-07-22T08:23:40.400Z,1004.1
2018-07-22T08:24:42.409Z,1004.1
2018-07-22T08:25:44.413Z,1004.2
2018-07-22T08:26:46.429Z,1004.1
2018-07-22T08:27:48.433Z,1004.1
2018-07-22T08:28:50.437Z,1004.1
2018-07-22T08:29:52.437Z,1004.1
2018-07-22T08:30:54.447Z,1004.1
2018-07-22T08:31:56.450Z,1004.1
2018-07-22T08:32:58.756Z,1004.1
2018-07-22T08:34:01.155Z,1004.1
2018-07-22T08:35:03.150Z,1004.1
2018-07-22T08:36:05.831Z,1004.1
2018-07-22T08:37:07.836Z,1004.2
2018-07-22T08:38:09.844Z,1004.1
2018-07-22T08:39:11.846Z,1004.1
2018-07-22T08:40:13.857Z,1004
2018-07-22T08:41:15.896Z,1004.1
2018-07-22T08:42:17.861Z,1004
2018-07-22T08:43:20.262Z,1004
2018-07-22T08:44:22.256Z,1004
2018-07-22T08:45:24.263Z,1004.1
2018-07-22T08:46:26.273Z,1004.1
2018-07-22T08:47:28.281Z,1004
2018-07-22T08:48:30.281Z,1004
2018-07-22T08:49:32.295Z,1004
2018-07-22T08:50:34.296Z,1004.1
2018-07-22T08:51:36.586Z,1004.1
2018-07-22T08:52:38.882Z,1004.1
2018-07-22T08:53:40.886Z,1004
2018-07-22T08:54:42.889Z,1004.1
2018-07-22T08:55:44.902Z,1004.1
2018-07-22T08:56:46.904Z,1004.1
2018-07-22T08:57:48.908Z,1004
2018-07-22T08:58:51.216Z,1004.1
2018-07-22T08:59:53.206Z,1004
2018-07-22T09:00:55.222Z,1004.1
2018-07-22T09:01:57.513Z,1004.1
2018-07-22T09:02:59.808Z,1004.1
2018-07-22T09:04:01.814Z,1004
2018-07-22T09:05:03.830Z,1004.1
2018-07-22T09:06:06.115Z,1004
2018-07-22T09:07:08.120Z,1004.2
2018-07-22T09:08:10.447Z,1004.1
2018-07-22T09:09:12.700Z,1004.1
2018-07-22T09:10:14.711Z,1004.2
2018-07-22T09:11:17.101Z,1004.1
2018-07-22T09:12:19.111Z,1004
2018-07-22T09:13:21.395Z,1004.1
2018-07-22T09:14:23.408Z,1004.2
2018-07-22T09:15:25.423Z,1004.1
2018-07-22T09:16:27.434Z,1004.2
2018-07-22T09:17:29.734Z,1004.2
2018-07-22T09:18:31.743Z,1004.2
2018-07-22T09:19:33.750Z,1004.2
2018-07-22T09:20:35.759Z,1004.2
2018-07-22T09:21:37.769Z,1004.2
2018-07-22T09:22:40.439Z,1004.2
2018-07-22T09:23:42.461Z,1004.2
2018-07-22T09:24:44.472Z,1004.2
2018-07-22T09:25:46.772Z,1004.2
2018-07-22T09:26:48.785Z,1004.2
2018-07-22T09:27:51.187Z,1004.3
2018-07-22T09:28:53.189Z,1004.3
2018-07-22T09:29:55.208Z,1004.3
2018-07-22T09:30:57.220Z,1004.3
2018-07-22T09:31:59.230Z,1004.2
2018-07-22T09:33:01.249Z,1004.2
2018-07-22T09:34:03.253Z,1004.2
2018-07-22T09:35:05.267Z,1004.2
2018-07-22T09:36:07.402Z,1004.3
2018-07-22T09:37:09.284Z,1004.2
2018-07-22T09:38:11.302Z,1004.2
2018-07-22T09:39:13.315Z,1004.3
2018-07-22T09:40:15.323Z,1004.2
2018-07-22T09:41:17.348Z,1004.3
2018-07-22T09:42:19.349Z,1004.2
2018-07-22T09:43:21.362Z,1004.2
2018-07-22T09:44:23.369Z,1004.3
2018-07-22T09:45:25.386Z,1004.2
2018-07-22T09:46:27.397Z,1004.2
2018-07-22T09:47:29.711Z,1004.2
2018-07-22T09:48:31.727Z,1004.2
2018-07-22T09:49:33.733Z,1004.2
2018-07-22T09:50:35.753Z,1004.2
2018-07-22T09:51:37.773Z,1004.2
2018-07-22T09:52:40.062Z,1004.2
2018-07-22T09:53:42.390Z,1004.2
2018-07-22T09:54:44.835Z,1004.3
2018-07-22T09:55:47.123Z,1004.2
2018-07-22T09:56:49.139Z,1004.2
2018-07-22T09:57:51.818Z,1004.2
2018-07-22T09:58:53.819Z,1004.2
2018-07-22T09:59:56.112Z,1004.2
2018-07-22T10:00:58.134Z,1004.2
2018-07-22T10:02:00.143Z,1004.1
2018-07-22T10:03:02.158Z,1004.2
2018-07-22T10:04:04.177Z,1004.2
2018-07-22T10:05:06.750Z,1004.2
2018-07-22T10:06:08.779Z,1004.2
2018-07-22T10:07:10.790Z,1004.2
2018-07-22T10:08:13.110Z,1004.2
2018-07-22T10:09:15.397Z,1004.2
2018-07-22T10:10:17.414Z,1004.2
2018-07-22T10:11:20.192Z,1004.2
2018-07-22T10:12:22.207Z,1004.3
2018-07-22T10:13:24.518Z,1004.3
2018-07-22T10:14:26.860Z,1004.2
2018-07-22T10:15:29.263Z,1004.2
2018-07-22T10:16:31.276Z,1004.2
2018-07-22T10:17:33.611Z,1004.3
2018-07-22T10:18:35.595Z,1004.3
2018-07-22T10:19:37.609Z,1004.3
2018-07-22T10:20:39.619Z,1004.3
2018-07-22T10:21:42.013Z,1004.2
2018-07-22T10:22:44.737Z,1004.2
2018-07-22T10:23:46.746Z,1004.2
2018-07-22T10:24:48.756Z,1004.3
2018-07-22T10:25:50.772Z,1004.2
2018-07-22T10:26:52.788Z,1004.3
2018-07-22T10:27:54.796Z,1004.3
2018-07-22T10:28:56.815Z,1004.3
2018-07-22T10:29:58.825Z,1004.3
2018-07-22T10:31:00.840Z,1004.3
2018-07-22T10:32:02.867Z,1004.2
2018-07-22T10:33:04.879Z,1004.3
2018-07-22T10:34:07.273Z,1004.3
2018-07-22T10:35:09.294Z,1004.3
2018-07-22T10:36:11.304Z,1004.3
2018-07-22T10:37:13.317Z,1004.3
2018-07-22T10:38:16.183Z,1004.3
2018-07-22T10:39:19.164Z,1004.3
2018-07-22T10:40:21.163Z,1004.3
2018-07-22T10:41:23.181Z,1004.3
2018-07-22T10:42:25.201Z,1004.3
2018-07-22T10:43:27.214Z,1004.3
2018-07-22T10:44:29.234Z,1004.2
2018-07-22T10:45:31.251Z,1004.3
2018-07-22T10:46:33.262Z,1004.2
2018-07-22T10:47:35.324Z,1004.2
2018-07-22T10:48:37.298Z,1004.2
2018-07-22T10:49:39.700Z,1004.2
2018-07-22T10:50:41.997Z,1004.2
2018-07-22T10:51:44.014Z,1004.1
2018-07-22T10:52:46.310Z,1004.2
2018-07-22T10:53:48.317Z,1004.2
2018-07-22T10:54:50.330Z,1004.2
2018-07-22T10:55:52.357Z,1004.2
2018-07-22T10:56:54.363Z,1004.2
2018-07-22T10:57:56.378Z,1004.2
2018-07-22T10:58:58.406Z,1004.3
2018-07-22T11:00:00.415Z,1004.2
2018-07-22T11:01:02.428Z,1004.2
2018-07-22T11:02:04.443Z,1004.1
2018-07-22T11:03:06.456Z,1004.2
2018-07-22T11:04:08.751Z,1004.2
2018-07-22T11:05:10.776Z,1004.1
2018-07-22T11:06:12.793Z,1004.1
2018-07-22T11:07:14.803Z,1004.1
2018-07-22T11:08:17.109Z,1004.2
2018-07-22T11:09:19.120Z,1004.1
2018-07-22T11:10:21.134Z,1004.1
2018-07-22T11:11:23.158Z,1004.2
2018-07-22T11:12:25.157Z,1004.1
2018-07-22T11:13:27.178Z,1004.2
2018-07-22T11:14:29.270Z,1004.2
2018-07-22T11:15:31.646Z,1004.2
2018-07-22T11:16:33.654Z,1004.1
2018-07-22T11:17:35.683Z,1004.1
2018-07-22T11:18:37.696Z,1004.1
2018-07-22T11:19:39.712Z,1004.1
2018-07-22T11:20:41.737Z,1004.1
2018-07-22T11:21:43.741Z,1004.1
2018-07-22T11:22:45.763Z,1004.1
2018-07-22T11:23:47.772Z,1004
2018-07-22T11:24:49.793Z,1004
2018-07-22T11:25:52.186Z,1004.1
2018-07-22T11:26:54.205Z,1004.1
2018-07-22T11:27:56.227Z,1004.1
2018-07-22T11:28:58.606Z,1004.1
2018-07-22T11:30:00.966Z,1004.1
2018-07-22T11:31:03.261Z,1004.1
2018-07-22T11:32:05.287Z,1004.1
2018-07-22T11:33:07.303Z,1004.1
2018-07-22T11:34:09.320Z,1004.1
2018-07-22T11:35:11.343Z,1004.1
2018-07-22T11:36:13.356Z,1004.1
2018-07-22T11:37:15.374Z,1004.2
2018-07-22T11:38:17.404Z,1004.2
2018-07-22T11:39:19.422Z,1004.2
2018-07-22T11:40:21.732Z,1004.1
2018-07-22T11:41:23.756Z,1004.1
2018-07-22T11:42:25.770Z,1004.1
2018-07-22T11:43:28.169Z,1004.1
2018-07-22T11:44:30.192Z,1004.1
2018-07-22T11:45:32.199Z,1004.1
2018-07-22T11:46:34.220Z,1004.1
2018-07-22T11:47:36.241Z,1004.1
2018-07-22T11:48:38.262Z,1004.1
2018-07-22T11:49:40.277Z,1004.2
2018-07-22T11:50:42.312Z,1004.2
2018-07-22T11:51:44.603Z,1004
2018-07-22T11:52:47.005Z,1004.1
2018-07-22T11:53:49.036Z,1004
2018-07-22T11:54:51.047Z,1004.1
2018-07-22T11:55:53.068Z,1004.1
2018-07-22T11:56:55.468Z,1004.1
2018-07-22T11:57:57.491Z,1004
2018-07-22T11:58:59.793Z,1004
2018-07-22T12:00:02.405Z,1004
2018-07-22T12:01:04.429Z,1003.9
2018-07-22T12:02:06.440Z,1004
2018-07-22T12:03:08.475Z,1004
2018-07-22T12:04:10.499Z,1004
2018-07-22T12:05:12.512Z,1003.9
2018-07-22T12:06:14.538Z,1003.9
2018-07-22T12:07:16.689Z,1003.9
2018-07-22T12:08:18.937Z,1003.9
2018-07-22T12:09:21.228Z,1003.9
2018-07-22T12:10:23.253Z,1003.8
2018-07-22T12:11:25.283Z,1003.9
2018-07-22T12:12:27.332Z,1003.9
2018-07-22T12:13:29.628Z,1003.9
2018-07-22T12:14:31.651Z,1003.8
2018-07-22T12:15:33.663Z,1003.9
2018-07-22T12:16:35.675Z,1003.9
2018-07-22T12:17:38.085Z,1003.8
2018-07-22T12:18:40.095Z,1003.9
2018-07-22T12:19:42.120Z,1003.9
2018-07-22T12:20:44.143Z,1003.9
2018-07-22T12:21:46.167Z,1003.9
2018-07-22T12:22:48.181Z,1003.9
2018-07-22T12:23:50.208Z,1003.9
2018-07-22T12:24:52.232Z,1003.9
2018-07-22T12:25:54.247Z,1003.9
2018-07-22T12:26:56.274Z,1003.9
2018-07-22T12:27:58.293Z,1003.9
2018-07-22T12:29:00.339Z,1003.9
2018-07-22T12:30:02.628Z,1003.8
2018-07-22T12:31:04.653Z,1003.9
2018-07-22T12:32:06.667Z,1003.9
2018-07-22T12:33:08.970Z,1003.8
2018-07-22T12:34:11.023Z,1003.8
2018-07-22T12:35:13.443Z,1003.8
2018-07-22T12:36:15.478Z,1003.9
2018-07-22T12:37:17.782Z,1003.8
2018-07-22T12:38:19.794Z,1003.8
2018-07-22T12:39:21.885Z,1003.9
2018-07-22T12:40:23.912Z,1003.8
2018-07-22T12:41:25.921Z,1003.8
2018-07-22T12:42:27.943Z,1003.8
2018-07-22T12:43:29.961Z,1003.8
2018-07-22T12:44:31.966Z,1003.8
2018-07-22T12:45:34.282Z,1003.8
2018-07-22T12:46:36.431Z,1003.8
2018-07-22T12:47:38.319Z,1003.9
2018-07-22T12:48:40.349Z,1003.8
2018-07-22T12:49:42.648Z,1003.9
2018-07-22T12:50:44.941Z,1003.8
2018-07-22T12:51:47.356Z,1003.7
2018-07-22T12:52:49.670Z,1003.8
2018-07-22T12:53:51.729Z,1003.7
2018-07-22T12:54:53.704Z,1003.7
2018-07-22T12:55:55.730Z,1003.8
2018-07-22T12:56:57.741Z,1003.8
2018-07-22T12:57:59.760Z,1003.8
2018-07-22T12:59:01.790Z,1003.7
2018-07-22T13:00:04.076Z,1003.7
2018-07-22T13:01:06.665Z,1003.7
2018-07-22T13:02:08.682Z,1003.8
2018-07-22T13:03:10.710Z,1003.7
2018-07-22T13:04:12.732Z,1003.7